Svetlana — 9HA3732 — position and weather

sailwx.info

Track history (hours):
 
Tides and Currents Weather Stations Pressure Air Temp Water Temp Dewpoint Dewpoint Depression Visibility Wind Speed Wind Dir Waves Ship Positions

Svetlana

Last reported at 2018-Jul-11 14:57 UTC. Time now 2018-Jul-18 05:05 UTC.
Position N 39°51' E 025°53'.

Length 133 m; draft 7 m.

Type: Ship. MMSI: 229936000.

Date/timePositionNaut miles runAvg speedWind from/ knotsBaromVisibWave heightAir tempDewpointWater temp
2018-Jul-11 14:57N 39°51' E 025°53'14012.3
2018-Jul-11 03:34N 37°30' E 025°55'42912.2
2018-Jul-09 16:30N 31°59' E 031°28'1611.5
2018-Jul-09 15:05N 31°47' E 031°40'13 4.7
2018-Jul-09 12:24N 31°35' E 031°46'0 0.0
2018-Jul-09 10:57N 31°35' E 031°46'0 0.0
2018-Jul-09 10:30N 31°35' E 031°46'0 0.0
2018-Jul-09 09:33N 31°35' E 031°46'0 0.0
2018-Jul-09 09:27N 31°35' E 031°46'0 0.0
2018-Jul-09 08:57N 31°35' E 031°46'0 0.0
2018-Jul-09 08:27N 31°35' E 031°46'0 0.0
2018-Jul-09 06:33N 31°35' E 031°46'0 0.0
2018-Jul-08 22:18N 31°35' E 031°46'0 0.1
2018-Jul-08 22:00N 31°35' E 031°46'2 4.4
2018-Jul-08 21:30N 31°33' E 031°47'4 8.8
2018-Jul-08 21:00N 31°29' E 031°45'1 0.9
2018-Jul-08 19:28N 31°28' E 031°46'0 0.0
2018-Jul-07 15:22N 31°28' E 031°46'0 0.0
2018-Jul-07 14:58N 31°28' E 031°46'0 0.0
2018-Jul-07 14:28N 31°28' E 031°46'8 0.2
2018-Jul-05 13:25N 31°36' E 031°46'0 0.0
2018-Jul-04 13:36N 31°36' E 031°46'0 0.0
2018-Jul-04 12:30N 31°36' E 031°46'  
Track history (hours):
 
Tides and Currents Weather Stations Pressure Air Temp Water Temp Dewpoint Dewpoint Depression Visibility Wind Speed Wind Dir Waves Ship Positions

Svetlana

Last reported at 2018-Jul-11 14:57 UTC. Time now 2018-Jul-18 05:05 UTC.
Position N 39°51' E 025°53'.

Length 133 m; draft 7 m.

Type: Ship. MMSI: 229936000.

Date/timePositionNaut miles runAvg speedWind from/ knotsBaromVisibWave heightAir tempDewpointWater temp
2018-Jul-11 14:57N 39°51' E 025°53'14012.3
2018-Jul-11 03:34N 37°30' E 025°55'42912.2
2018-Jul-09 16:30N 31°59' E 031°28'1611.5
2018-Jul-09 15:05N 31°47' E 031°40'13 4.7
2018-Jul-09 12:24N 31°35' E 031°46'0 0.0
2018-Jul-09 10:57N 31°35' E 031°46'0 0.0
2018-Jul-09 10:30N 31°35' E 031°46'0 0.0
2018-Jul-09 09:33N 31°35' E 031°46'0 0.0
2018-Jul-09 09:27N 31°35' E 031°46'0 0.0
2018-Jul-09 08:57N 31°35' E 031°46'0 0.0
2018-Jul-09 08:27N 31°35' E 031°46'0 0.0
2018-Jul-09 06:33N 31°35' E 031°46'0 0.0
2018-Jul-08 22:18N 31°35' E 031°46'0 0.1
2018-Jul-08 22:00N 31°35' E 031°46'2 4.4
2018-Jul-08 21:30N 31°33' E 031°47'4 8.8
2018-Jul-08 21:00N 31°29' E 031°45'1 0.9
2018-Jul-08 19:28N 31°28' E 031°46'0 0.0
2018-Jul-07 15:22N 31°28' E 031°46'0 0.0
2018-Jul-07 14:58N 31°28' E 031°46'0 0.0
2018-Jul-07 14:28N 31°28' E 031°46'8 0.2
2018-Jul-05 13:25N 31°36' E 031°46'0 0.0
2018-Jul-04 13:36N 31°36' E 031°46'0 0.0
2018-Jul-04 12:30N 31°36' E 031°46'  

Dump ship's entire track history